sensor_id;sensor_type;location;lat;lon;timestamp;temperature;humidity
73833;SHT30;62179;48.444;-4.464;2022-08-19T11:54:12;23.85;63.40
73833;SHT30;62179;48.444;-4.464;2022-08-19T11:56:38;23.90;61.45
73833;SHT30;62179;48.444;-4.464;2022-08-19T11:59:04;23.96;61.81
73833;SHT30;62179;48.444;-4.464;2022-08-19T12:01:30;24.03;60.98
73833;SHT30;62179;48.444;-4.464;2022-08-19T12:03:57;24.12;62.03
73833;SHT30;62179;48.444;-4.464;2022-08-19T12:06:32;24.23;61.13
73833;SHT30;62179;48.444;-4.464;2022-08-19T12:09:02;24.27;60.12
73833;SHT30;62179;48.444;-4.464;2022-08-19T12:11:29;24.36;60.18
73833;SHT30;62179;48.444;-4.464;2022-08-19T12:13:55;24.47;59.66
73833;SHT30;62179;48.444;-4.464;2022-08-19T12:16:24;24.60;58.29
73833;SHT30;62179;48.444;-4.464;2022-08-19T12:18:50;24.67;59.79
73833;SHT30;62179;48.444;-4.464;2022-08-19T12:21:22;24.74;58.94
73833;SHT30;62179;48.444;-4.464;2022-08-19T12:23:50;24.78;57.89
73833;SHT30;62179;48.444;-4.464;2022-08-19T12:26:17;24.82;58.13
73833;SHT30;62179;48.444;-4.464;2022-08-19T12:28:43;24.65;56.51
73833;SHT30;62179;48.444;-4.464;2022-08-19T12:31:09;24.50;57.80
73833;SHT30;62179;48.444;-4.464;2022-08-19T12:33:38;24.44;56.92
73833;SHT30;62179;48.444;-4.464;2022-08-19T12:36:06;24.43;57.65
73833;SHT30;62179;48.444;-4.464;2022-08-19T12:38:32;24.46;57.71
73833;SHT30;62179;48.444;-4.464;2022-08-19T12:40:58;24.46;55.68
73833;SHT30;62179;48.444;-4.464;2022-08-19T12:43:24;24.50;56.93
73833;SHT30;62179;48.444;-4.464;2022-08-19T12:45:49;24.54;55.88
73833;SHT30;62179;48.444;-4.464;2022-08-19T12:48:15;24.61;54.55
73833;SHT30;62179;48.444;-4.464;2022-08-19T12:50:43;24.56;54.48
73833;SHT30;62179;48.444;-4.464;2022-08-19T12:53:10;24.40;56.17
73833;SHT30;62179;48.444;-4.464;2022-08-19T12:55:36;24.23;56.31
73833;SHT30;62179;48.444;-4.464;2022-08-19T12:58:01;24.17;54.58
73833;SHT30;62179;48.444;-4.464;2022-08-19T13:00:27;24.22;56.34
73833;SHT30;62179;48.444;-4.464;2022-08-19T13:02:53;24.30;56.22
73833;SHT30;62179;48.444;-4.464;2022-08-19T13:05:28;24.33;53.35
73833;SHT30;62179;48.444;-4.464;2022-08-19T13:07:55;24.23;54.01
73833;SHT30;62179;48.444;-4.464;2022-08-19T13:10:22;24.12;55.17
73833;SHT30;62179;48.444;-4.464;2022-08-19T13:12:49;24.14;55.44
73833;SHT30;62179;48.444;-4.464;2022-08-19T13:15:16;24.19;54.29
73833;SHT30;62179;48.444;-4.464;2022-08-19T13:17:45;24.24;54.39
73833;SHT30;62179;48.444;-4.464;2022-08-19T13:20:12;24.33;54.92
73833;SHT30;62179;48.444;-4.464;2022-08-19T13:22:38;24.36;54.64
73833;SHT30;62179;48.444;-4.464;2022-08-19T13:25:05;24.36;52.83
73833;SHT30;62179;48.444;-4.464;2022-08-19T13:27:30;24.39;53.28
73833;SHT30;62179;48.444;-4.464;2022-08-19T13:29:56;24.37;53.86
73833;SHT30;62179;48.444;-4.464;2022-08-19T13:32:40;24.44;52.99
73833;SHT30;62179;48.444;-4.464;2022-08-19T13:35:24;24.41;51.09
73833;SHT30;62179;48.444;-4.464;2022-08-19T13:37:49;24.39;51.46
73833;SHT30;62179;48.444;-4.464;2022-08-19T13:40:20;24.37;49.68
73833;SHT30;62179;48.444;-4.464;2022-08-19T13:42:51;24.37;50.59
73833;SHT30;62179;48.444;-4.464;2022-08-19T13:45:19;24.37;49.36
73833;SHT30;62179;48.444;-4.464;2022-08-19T13:47:46;24.33;48.31
73833;SHT30;62179;48.444;-4.464;2022-08-19T13:50:14;24.33;48.22
73833;SHT30;62179;48.444;-4.464;2022-08-19T13:52:41;24.32;48.20
73833;SHT30;62179;48.444;-4.464;2022-08-19T13:55:08;24.30;47.61
73833;SHT30;62179;48.444;-4.464;2022-08-19T13:57:34;24.26;45.45
73833;SHT30;62179;48.444;-4.464;2022-08-19T14:00:00;24.23;47.07
73833;SHT30;62179;48.444;-4.464;2022-08-19T14:02:26;24.23;49.00
73833;SHT30;62179;48.444;-4.464;2022-08-19T14:04:52;24.22;48.22
73833;SHT30;62179;48.444;-4.464;2022-08-19T14:07:18;24.16;48.42
73833;SHT30;62179;48.444;-4.464;2022-08-19T14:09:43;24.17;50.11
73833;SHT30;62179;48.444;-4.464;2022-08-19T14:12:09;24.16;49.62
73833;SHT30;62179;48.444;-4.464;2022-08-19T14:14:39;24.13;49.87
73833;SHT30;62179;48.444;-4.464;2022-08-19T14:17:07;24.09;51.57
73833;SHT30;62179;48.444;-4.464;2022-08-19T14:19:33;24.12;51.35
73833;SHT30;62179;48.444;-4.464;2022-08-19T14:21:59;24.08;49.71
73833;SHT30;62179;48.444;-4.464;2022-08-19T14:24:26;24.08;52.33
73833;SHT30;62179;48.444;-4.464;2022-08-19T14:26:57;24.08;50.97
73833;SHT30;62179;48.444;-4.464;2022-08-19T14:29:23;24.01;52.15
73833;SHT30;62179;48.444;-4.464;2022-08-19T14:31:48;24.02;51.91
73833;SHT30;62179;48.444;-4.464;2022-08-19T14:34:14;23.93;50.62
73833;SHT30;62179;48.444;-4.464;2022-08-19T14:36:39;23.88;51.12
73833;SHT30;62179;48.444;-4.464;2022-08-19T14:39:06;23.81;52.28
73833;SHT30;62179;48.444;-4.464;2022-08-19T14:41:32;23.82;52.07
73833;SHT30;62179;48.444;-4.464;2022-08-19T14:43:58;23.79;51.30
73833;SHT30;62179;48.444;-4.464;2022-08-19T14:46:26;23.76;51.98
73833;SHT30;62179;48.444;-4.464;2022-08-19T14:48:53;23.75;52.31
73833;SHT30;62179;48.444;-4.464;2022-08-19T14:51:23;23.75;52.45
73833;SHT30;62179;48.444;-4.464;2022-08-19T14:53:49;23.75;52.92
73833;SHT30;62179;48.444;-4.464;2022-08-19T14:56:18;23.74;53.51
73833;SHT30;62179;48.444;-4.464;2022-08-19T14:58:44;23.72;53.01
73833;SHT30;62179;48.444;-4.464;2022-08-19T15:01:10;23.72;53.51
73833;SHT30;62179;48.444;-4.464;2022-08-19T15:03:37;23.68;53.33
73833;SHT30;62179;48.444;-4.464;2022-08-19T15:06:05;23.66;53.72
73833;SHT30;62179;48.444;-4.464;2022-08-19T15:08:32;23.64;53.41
73833;SHT30;62179;48.444;-4.464;2022-08-19T15:10:58;23.59;53.80
73833;SHT30;62179;48.444;-4.464;2022-08-19T15:13:25;23.58;55.20
73833;SHT30;62179;48.444;-4.464;2022-08-19T15:15:52;23.51;55.02
73833;SHT30;62179;48.444;-4.464;2022-08-19T15:18:17;23.51;54.18
73833;SHT30;62179;48.444;-4.464;2022-08-19T15:20:45;23.45;54.49
73833;SHT30;62179;48.444;-4.464;2022-08-19T15:23:12;23.35;54.70
73833;SHT30;62179;48.444;-4.464;2022-08-19T15:25:38;23.23;54.47
73833;SHT30;62179;48.444;-4.464;2022-08-19T15:28:03;23.11;54.87
73833;SHT30;62179;48.444;-4.464;2022-08-19T15:30:29;23.10;54.50
73833;SHT30;62179;48.444;-4.464;2022-08-19T15:32:56;23.02;55.32
73833;SHT30;62179;48.444;-4.464;2022-08-19T15:35:23;23.00;55.21
73833;SHT30;62179;48.444;-4.464;2022-08-19T15:37:50;23.07;55.54
73833;SHT30;62179;48.444;-4.464;2022-08-19T15:40:16;23.13;55.53
73833;SHT30;62179;48.444;-4.464;2022-08-19T15:42:41;23.17;55.23
73833;SHT30;62179;48.444;-4.464;2022-08-19T15:45:08;23.20;54.60
73833;SHT30;62179;48.444;-4.464;2022-08-19T15:47:34;23.17;53.61
73833;SHT30;62179;48.444;-4.464;2022-08-19T15:50:00;23.20;54.19
73833;SHT30;62179;48.444;-4.464;2022-08-19T15:52:26;23.18;53.28
73833;SHT30;62179;48.444;-4.464;2022-08-19T15:54:51;23.20;53.96
73833;SHT30;62179;48.444;-4.464;2022-08-19T15:57:17;23.11;54.48
73833;SHT30;62179;48.444;-4.464;2022-08-19T15:59:51;22.97;54.47
73833;SHT30;62179;48.444;-4.464;2022-08-19T16:02:35;22.87;55.22
73833;SHT30;62179;48.444;-4.464;2022-08-19T16:05:25;22.92;55.06
73833;SHT30;62179;48.444;-4.464;2022-08-19T16:08:10;22.95;55.07
73833;SHT30;62179;48.444;-4.464;2022-08-19T17:47:28;22.14;56.86
73833;SHT30;62179;48.444;-4.464;2022-08-19T17:49:55;22.07;56.76
73833;SHT30;62179;48.444;-4.464;2022-08-19T17:52:21;21.98;56.26
73833;SHT30;62179;48.444;-4.464;2022-08-19T17:54:47;21.88;56.81
73833;SHT30;62179;48.444;-4.464;2022-08-19T17:57:13;21.83;57.29
73833;SHT30;62179;48.444;-4.464;2022-08-19T17:59:39;21.78;56.72
73833;SHT30;62179;48.444;-4.464;2022-08-19T18:02:08;21.74;56.70
73833;SHT30;62179;48.444;-4.464;2022-08-19T18:04:34;21.71;56.91
73833;SHT30;62179;48.444;-4.464;2022-08-19T18:07:00;21.67;57.07
73833;SHT30;62179;48.444;-4.464;2022-08-19T18:09:31;21.63;56.83
73833;SHT30;62179;48.444;-4.464;2022-08-19T18:11:58;21.60;57.26
73833;SHT30;62179;48.444;-4.464;2022-08-19T18:14:26;21.59;57.74
73833;SHT30;62179;48.444;-4.464;2022-08-19T18:16:56;21.57;57.57
73833;SHT30;62179;48.444;-4.464;2022-08-19T18:19:23;21.53;57.58
73833;SHT30;62179;48.444;-4.464;2022-08-19T18:21:49;21.50;57.63
73833;SHT30;62179;48.444;-4.464;2022-08-19T18:24:15;21.43;57.60
73833;SHT30;62179;48.444;-4.464;2022-08-19T18:26:41;21.42;57.93
73833;SHT30;62179;48.444;-4.464;2022-08-19T18:29:08;21.38;57.91
73833;SHT30;62179;48.444;-4.464;2022-08-19T18:31:37;21.36;57.67
73833;SHT30;62179;48.444;-4.464;2022-08-19T18:34:07;21.35;57.86
73833;SHT30;62179;48.444;-4.464;2022-08-19T18:36:35;21.29;58.00
73833;SHT30;62179;48.444;-4.464;2022-08-19T18:39:01;21.22;58.21
73833;SHT30;62179;48.444;-4.464;2022-08-19T18:41:45;21.13;58.62
73833;SHT30;62179;48.444;-4.464;2022-08-19T18:44:30;21.08;58.39
73833;SHT30;62179;48.444;-4.464;2022-08-19T18:47:14;21.01;58.72
73833;SHT30;62179;48.444;-4.464;2022-08-19T18:49:58;20.98;59.10
73833;SHT30;62179;48.444;-4.464;2022-08-19T18:52:29;20.91;59.52
73833;SHT30;62179;48.444;-4.464;2022-08-19T18:54:57;20.87;59.98
73833;SHT30;62179;48.444;-4.464;2022-08-19T18:57:24;20.80;60.09
73833;SHT30;62179;48.444;-4.464;2022-08-19T18:59:50;20.75;60.38
73833;SHT30;62179;48.444;-4.464;2022-08-19T19:02:16;20.71;60.61
73833;SHT30;62179;48.444;-4.464;2022-08-19T19:04:43;20.63;61.25
73833;SHT30;62179;48.444;-4.464;2022-08-19T19:07:10;20.60;60.56
73833;SHT30;62179;48.444;-4.464;2022-08-19T19:09:38;20.51;61.04
73833;SHT30;62179;48.444;-4.464;2022-08-19T19:12:07;20.47;61.97
73833;SHT30;62179;48.444;-4.464;2022-08-19T19:14:40;20.41;62.14
73833;SHT30;62179;48.444;-4.464;2022-08-19T19:17:12;20.34;62.44
73833;SHT30;62179;48.444;-4.464;2022-08-19T19:19:40;20.30;62.12
73833;SHT30;62179;48.444;-4.464;2022-08-19T19:22:07;20.29;62.71
73833;SHT30;62179;48.444;-4.464;2022-08-19T19:24:35;20.24;62.77
73833;SHT30;62179;48.444;-4.464;2022-08-19T19:27:03;20.20;62.88
73833;SHT30;62179;48.444;-4.464;2022-08-19T19:29:35;20.16;63.09
73833;SHT30;62179;48.444;-4.464;2022-08-19T19:32:06;20.12;63.55
73833;SHT30;62179;48.444;-4.464;2022-08-19T19:34:31;20.06;63.85
73833;SHT30;62179;48.444;-4.464;2022-08-19T19:36:57;19.97;64.12
73833;SHT30;62179;48.444;-4.464;2022-08-19T19:39:23;19.93;64.49
73833;SHT30;62179;48.444;-4.464;2022-08-19T19:41:49;19.87;64.56
73833;SHT30;62179;48.444;-4.464;2022-08-19T19:44:15;19.82;65.10
73833;SHT30;62179;48.444;-4.464;2022-08-19T19:46:41;19.75;64.94
73833;SHT30;62179;48.444;-4.464;2022-08-19T19:49:08;19.68;65.22
73833;SHT30;62179;48.444;-4.464;2022-08-19T19:51:34;19.62;65.78
73833;SHT30;62179;48.444;-4.464;2022-08-19T19:54:02;19.55;66.13
73833;SHT30;62179;48.444;-4.464;2022-08-19T19:56:28;19.47;66.03
73833;SHT30;62179;48.444;-4.464;2022-08-19T19:58:53;19.43;66.16
73833;SHT30;62179;48.444;-4.464;2022-08-19T20:01:20;19.34;66.21
73833;SHT30;62179;48.444;-4.464;2022-08-19T20:03:50;19.27;66.51
73833;SHT30;62179;48.444;-4.464;2022-08-19T20:06:16;19.17;66.72
73833;SHT30;62179;48.444;-4.464;2022-08-19T20:08:42;19.13;66.92
73833;SHT30;62179;48.444;-4.464;2022-08-19T20:13:58;19.02;67.35
73833;SHT30;62179;48.444;-4.464;2022-08-19T20:16:26;18.96;67.51
73833;SHT30;62179;48.444;-4.464;2022-08-19T20:18:54;18.87;67.87
73833;SHT30;62179;48.444;-4.464;2022-08-19T20:21:21;18.85;67.80
73833;SHT30;62179;48.444;-4.464;2022-08-19T20:23:47;18.80;67.91
73833;SHT30;62179;48.444;-4.464;2022-08-19T20:26:13;18.72;68.23
73833;SHT30;62179;48.444;-4.464;2022-08-19T20:28:41;18.69;68.07
73833;SHT30;62179;48.444;-4.464;2022-08-19T20:31:06;18.63;68.24
73833;SHT30;62179;48.444;-4.464;2022-08-19T20:33:32;18.57;68.29
73833;SHT30;62179;48.444;-4.464;2022-08-19T20:35:57;18.51;68.61
73833;SHT30;62179;48.444;-4.464;2022-08-19T20:38:22;18.42;68.85
73833;SHT30;62179;48.444;-4.464;2022-08-19T20:40:48;18.39;68.86
73833;SHT30;62179;48.444;-4.464;2022-08-19T20:43:15;18.34;69.02
73833;SHT30;62179;48.444;-4.464;2022-08-19T20:45:40;18.27;69.12
73833;SHT30;62179;48.444;-4.464;2022-08-19T20:48:07;18.22;69.24
73833;SHT30;62179;48.444;-4.464;2022-08-19T20:50:34;18.15;69.48
73833;SHT30;62179;48.444;-4.464;2022-08-19T20:53:00;18.11;69.64
73833;SHT30;62179;48.444;-4.464;2022-08-19T20:55:32;18.05;69.77
73833;SHT30;62179;48.444;-4.464;2022-08-19T20:57:59;18.02;69.87
73833;SHT30;62179;48.444;-4.464;2022-08-19T21:00:24;17.97;70.05
73833;SHT30;62179;48.444;-4.464;2022-08-19T21:02:50;17.91;70.30
73833;SHT30;62179;48.444;-4.464;2022-08-19T21:05:19;17.87;70.25
73833;SHT30;62179;48.444;-4.464;2022-08-19T21:07:45;17.83;70.29
73833;SHT30;62179;48.444;-4.464;2022-08-19T21:10:10;17.83;70.39
73833;SHT30;62179;48.444;-4.464;2022-08-19T21:12:37;17.77;70.69
73833;SHT30;62179;48.444;-4.464;2022-08-19T21:15:03;17.71;70.46
73833;SHT30;62179;48.444;-4.464;2022-08-19T21:17:29;17.67;70.49
73833;SHT30;62179;48.444;-4.464;2022-08-19T21:19:54;17.60;70.76
73833;SHT30;62179;48.444;-4.464;2022-08-19T21:22:20;17.56;70.85
73833;SHT30;62179;48.444;-4.464;2022-08-19T21:24:45;17.54;71.02
73833;SHT30;62179;48.444;-4.464;2022-08-19T21:27:11;17.49;71.14
73833;SHT30;62179;48.444;-4.464;2022-08-19T21:29:36;17.45;71.17
73833;SHT30;62179;48.444;-4.464;2022-08-19T21:32:04;17.42;71.38
